sensor_id;sensor_type;location;lat;lon;timestamp;P1;durP1;ratioP1;P2;durP2;ratioP2
4553;SDS011;2289;48.316;15.174;2022-08-02T00:00:56;2.50;;;2.30;;
4553;SDS011;2289;48.316;15.174;2022-08-02T00:03:24;2.17;;;1.97;;
4553;SDS011;2289;48.316;15.174;2022-08-02T00:05:54;2.80;;;1.83;;
4553;SDS011;2289;48.316;15.174;2022-08-02T00:08:22;2.40;;;2.20;;
4553;SDS011;2289;48.316;15.174;2022-08-02T00:10:50;2.33;;;1.97;;
4553;SDS011;2289;48.316;15.174;2022-08-02T00:13:18;3.33;;;1.70;;
4553;SDS011;2289;48.316;15.174;2022-08-02T00:15:46;2.13;;;1.90;;
4553;SDS011;2289;48.316;15.174;2022-08-02T00:18:15;3.43;;;2.00;;
4553;SDS011;2289;48.316;15.174;2022-08-02T00:20:43;2.27;;;2.07;;
4553;SDS011;2289;48.316;15.174;2022-08-02T00:23:12;2.73;;;2.20;;
4553;SDS011;2289;48.316;15.174;2022-08-02T00:25:40;2.37;;;1.83;;
4553;SDS011;2289;48.316;15.174;2022-08-02T00:28:21;2.50;;;2.00;;
4553;SDS011;2289;48.316;15.174;2022-08-02T00:30:53;1.53;;;1.43;;
4553;SDS011;2289;48.316;15.174;2022-08-02T00:33:22;1.53;;;1.43;;
4553;SDS011;2289;48.316;15.174;2022-08-02T00:36:10;4.13;;;1.60;;
4553;SDS011;2289;48.316;15.174;2022-08-02T00:38:39;5.23;;;1.80;;
4553;SDS011;2289;48.316;15.174;2022-08-02T00:41:11;2.00;;;1.60;;
4553;SDS011;2289;48.316;15.174;2022-08-02T00:43:41;2.63;;;2.20;;
4553;SDS011;2289;48.316;15.174;2022-08-02T00:46:10;2.20;;;2.00;;
4553;SDS011;2289;48.316;15.174;2022-08-02T00:48:38;3.70;;;2.60;;
4553;SDS011;2289;48.316;15.174;2022-08-02T00:51:08;3.07;;;1.83;;
4553;SDS011;2289;48.316;15.174;2022-08-02T00:53:37;2.00;;;1.90;;
4553;SDS011;2289;48.316;15.174;2022-08-02T00:56:07;3.90;;;2.00;;
4553;SDS011;2289;48.316;15.174;2022-08-02T00:58:35;4.30;;;1.93;;
4553;SDS011;2289;48.316;15.174;2022-08-02T01:01:04;2.80;;;1.87;;
4553;SDS011;2289;48.316;15.174;2022-08-02T01:03:32;2.63;;;2.43;;
4553;SDS011;2289;48.316;15.174;2022-08-02T01:06:00;5.73;;;2.73;;
4553;SDS011;2289;48.316;15.174;2022-08-02T01:08:43;3.50;;;2.67;;
4553;SDS011;2289;48.316;15.174;2022-08-02T01:11:13;6.63;;;2.60;;
4553;SDS011;2289;48.316;15.174;2022-08-02T01:13:41;5.53;;;2.07;;
4553;SDS011;2289;48.316;15.174;2022-08-02T01:16:10;2.60;;;2.40;;
4553;SDS011;2289;48.316;15.174;2022-08-02T01:18:42;4.53;;;2.77;;
4553;SDS011;2289;48.316;15.174;2022-08-02T01:21:18;6.00;;;2.30;;
4553;SDS011;2289;48.316;15.174;2022-08-02T01:23:55;2.70;;;1.90;;
4553;SDS011;2289;48.316;15.174;2022-08-02T01:26:33;2.57;;;1.93;;
4553;SDS011;2289;48.316;15.174;2022-08-02T01:29:08;2.17;;;1.80;;
4553;SDS011;2289;48.316;15.174;2022-08-02T01:31:41;8.17;;;3.47;;
4553;SDS011;2289;48.316;15.174;2022-08-02T01:34:12;2.37;;;2.00;;
4553;SDS011;2289;48.316;15.174;2022-08-02T01:36:47;12.40;;;3.33;;
4553;SDS011;2289;48.316;15.174;2022-08-02T01:39:18;3.60;;;2.03;;
4553;SDS011;2289;48.316;15.174;2022-08-02T01:41:58;6.30;;;2.40;;
4553;SDS011;2289;48.316;15.174;2022-08-02T01:44:29;4.33;;;2.83;;
4553;SDS011;2289;48.316;15.174;2022-08-02T01:47:01;2.57;;;2.37;;
4553;SDS011;2289;48.316;15.174;2022-08-02T01:49:31;2.40;;;2.20;;
4553;SDS011;2289;48.316;15.174;2022-08-02T01:52:01;3.13;;;1.90;;
4553;SDS011;2289;48.316;15.174;2022-08-02T01:54:49;2.43;;;2.23;;
4553;SDS011;2289;48.316;15.174;2022-08-02T01:57:19;3.40;;;2.40;;
4553;SDS011;2289;48.316;15.174;2022-08-02T01:59:49;2.40;;;1.90;;
4553;SDS011;2289;48.316;15.174;2022-08-02T02:02:18;2.10;;;2.00;;
4553;SDS011;2289;48.316;15.174;2022-08-02T02:04:47;2.70;;;2.10;;
4553;SDS011;2289;48.316;15.174;2022-08-02T02:07:17;3.40;;;2.70;;
4553;SDS011;2289;48.316;15.174;2022-08-02T02:09:47;2.60;;;1.73;;
4553;SDS011;2289;48.316;15.174;2022-08-02T02:12:17;5.03;;;2.43;;
4553;SDS011;2289;48.316;15.174;2022-08-02T02:14:46;2.83;;;1.90;;
4553;SDS011;2289;48.316;15.174;2022-08-02T02:17:19;1.80;;;1.70;;
4553;SDS011;2289;48.316;15.174;2022-08-02T02:20:09;4.97;;;3.70;;
4553;SDS011;2289;48.316;15.174;2022-08-02T02:22:40;2.40;;;2.20;;
4553;SDS011;2289;48.316;15.174;2022-08-02T02:25:09;4.20;;;1.87;;
4553;SDS011;2289;48.316;15.174;2022-08-02T02:27:42;2.43;;;2.23;;
4553;SDS011;2289;48.316;15.174;2022-08-02T02:30:13;3.10;;;2.40;;
4553;SDS011;2289;48.316;15.174;2022-08-02T02:32:42;2.50;;;2.30;;
4553;SDS011;2289;48.316;15.174;2022-08-02T02:35:11;2.63;;;1.60;;
4553;SDS011;2289;48.316;15.174;2022-08-02T02:37:39;3.50;;;2.50;;
4553;SDS011;2289;48.316;15.174;2022-08-02T02:40:10;3.23;;;2.87;;
4553;SDS011;2289;48.316;15.174;2022-08-02T02:42:38;4.13;;;2.43;;
4553;SDS011;2289;48.316;15.174;2022-08-02T02:45:14;3.17;;;2.07;;
4553;SDS011;2289;48.316;15.174;2022-08-02T02:47:46;3.40;;;2.50;;
4553;SDS011;2289;48.316;15.174;2022-08-02T02:50:15;2.37;;;2.17;;
4553;SDS011;2289;48.316;15.174;2022-08-02T02:52:44;3.00;;;2.70;;
4553;SDS011;2289;48.316;15.174;2022-08-02T02:55:13;3.20;;;2.57;;
4553;SDS011;2289;48.316;15.174;2022-08-02T02:58:00;3.83;;;2.47;;
4553;SDS011;2289;48.316;15.174;2022-08-02T03:00:47;3.70;;;2.70;;
4553;SDS011;2289;48.316;15.174;2022-08-02T03:03:53;2.47;;;2.27;;
4553;SDS011;2289;48.316;15.174;2022-08-02T03:06:40;2.43;;;2.00;;
4553;SDS011;2289;48.316;15.174;2022-08-02T03:09:17;2.20;;;2.00;;
4553;SDS011;2289;48.316;15.174;2022-08-02T03:11:46;4.60;;;2.30;;
4553;SDS011;2289;48.316;15.174;2022-08-02T03:14:14;2.27;;;2.07;;
4553;SDS011;2289;48.316;15.174;2022-08-02T03:16:43;3.70;;;2.33;;
4553;SDS011;2289;48.316;15.174;2022-08-02T03:19:14;2.20;;;1.97;;
4553;SDS011;2289;48.316;15.174;2022-08-02T03:21:43;1.97;;;1.77;;
4553;SDS011;2289;48.316;15.174;2022-08-02T03:24:12;3.47;;;2.57;;
4553;SDS011;2289;48.316;15.174;2022-08-02T03:26:53;2.57;;;2.07;;
4553;SDS011;2289;48.316;15.174;2022-08-02T03:29:21;2.33;;;2.13;;
4553;SDS011;2289;48.316;15.174;2022-08-02T03:31:49;2.70;;;2.30;;
4553;SDS011;2289;48.316;15.174;2022-08-02T03:34:19;2.07;;;1.90;;
4553;SDS011;2289;48.316;15.174;2022-08-02T03:36:48;3.00;;;2.10;;
4553;SDS011;2289;48.316;15.174;2022-08-02T03:39:18;5.47;;;2.90;;
4553;SDS011;2289;48.316;15.174;2022-08-02T03:41:46;4.00;;;3.03;;
4553;SDS011;2289;48.316;15.174;2022-08-02T03:44:15;3.60;;;2.70;;
4553;SDS011;2289;48.316;15.174;2022-08-02T03:46:43;8.00;;;2.97;;
4553;SDS011;2289;48.316;15.174;2022-08-02T03:49:12;2.60;;;2.40;;
4553;SDS011;2289;48.316;15.174;2022-08-02T03:51:43;4.33;;;2.17;;
4553;SDS011;2289;48.316;15.174;2022-08-02T03:54:11;3.93;;;2.23;;
4553;SDS011;2289;48.316;15.174;2022-08-02T03:56:40;5.77;;;2.63;;
4553;SDS011;2289;48.316;15.174;2022-08-02T03:59:09;5.30;;;2.40;;
4553;SDS011;2289;48.316;15.174;2022-08-02T04:01:38;7.17;;;2.40;;
4553;SDS011;2289;48.316;15.174;2022-08-02T04:04:07;7.47;;;2.67;;
4553;SDS011;2289;48.316;15.174;2022-08-02T04:06:36;3.53;;;1.93;;
4553;SDS011;2289;48.316;15.174;2022-08-02T04:09:08;3.33;;;2.27;;
4553;SDS011;2289;48.316;15.174;2022-08-02T04:11:36;3.20;;;2.10;;
4553;SDS011;2289;48.316;15.174;2022-08-02T04:14:05;3.40;;;2.00;;
4553;SDS011;2289;48.316;15.174;2022-08-02T04:16:38;3.40;;;2.50;;
4553;SDS011;2289;48.316;15.174;2022-08-02T04:19:09;4.83;;;3.00;;
4553;SDS011;2289;48.316;15.174;2022-08-02T04:21:41;2.30;;;2.10;;
4553;SDS011;2289;48.316;15.174;2022-08-02T04:24:19;2.60;;;2.40;;
4553;SDS011;2289;48.316;15.174;2022-08-02T04:26:51;4.17;;;2.70;;
4553;SDS011;2289;48.316;15.174;2022-08-02T04:29:32;4.50;;;2.67;;
4553;SDS011;2289;48.316;15.174;2022-08-02T04:32:00;5.63;;;2.63;;
4553;SDS011;2289;48.316;15.174;2022-08-02T04:34:29;2.90;;;2.23;;
4553;SDS011;2289;48.316;15.174;2022-08-02T04:36:58;2.53;;;2.27;;
4553;SDS011;2289;48.316;15.174;2022-08-02T04:39:27;2.60;;;2.43;;
4553;SDS011;2289;48.316;15.174;2022-08-02T04:41:56;2.53;;;2.33;;
4553;SDS011;2289;48.316;15.174;2022-08-02T04:44:24;2.50;;;2.30;;
4553;SDS011;2289;48.316;15.174;2022-08-02T04:46:52;2.60;;;2.37;;
4553;SDS011;2289;48.316;15.174;2022-08-02T04:49:21;3.57;;;2.43;;
4553;SDS011;2289;48.316;15.174;2022-08-02T04:51:49;2.63;;;2.43;;
4553;SDS011;2289;48.316;15.174;2022-08-02T04:54:17;2.90;;;2.70;;
4553;SDS011;2289;48.316;15.174;2022-08-02T04:56:47;2.43;;;2.17;;
4553;SDS011;2289;48.316;15.174;2022-08-02T04:59:15;2.53;;;2.30;;
4553;SDS011;2289;48.316;15.174;2022-08-02T05:01:43;3.30;;;2.37;;
4553;SDS011;2289;48.316;15.174;2022-08-02T05:04:12;4.83;;;2.20;;
4553;SDS011;2289;48.316;15.174;2022-08-02T05:06:40;3.30;;;1.93;;
4553;SDS011;2289;48.316;15.174;2022-08-02T05:09:08;3.77;;;2.07;;
4553;SDS011;2289;48.316;15.174;2022-08-02T05:11:36;7.73;;;2.70;;
4553;SDS011;2289;48.316;15.174;2022-08-02T05:14:06;3.40;;;2.23;;
4553;SDS011;2289;48.316;15.174;2022-08-02T05:16:34;2.27;;;2.03;;
4553;SDS011;2289;48.316;15.174;2022-08-02T05:19:03;6.53;;;2.00;;
4553;SDS011;2289;48.316;15.174;2022-08-02T05:21:31;3.90;;;2.33;;
4553;SDS011;2289;48.316;15.174;2022-08-02T05:23:59;3.20;;;2.00;;
4553;SDS011;2289;48.316;15.174;2022-08-02T05:26:27;5.13;;;2.40;;
4553;SDS011;2289;48.316;15.174;2022-08-02T05:28:56;2.00;;;1.90;;
4553;SDS011;2289;48.316;15.174;2022-08-02T05:31:26;3.20;;;2.60;;
4553;SDS011;2289;48.316;15.174;2022-08-02T05:33:54;2.33;;;2.13;;
4553;SDS011;2289;48.316;15.174;2022-08-02T05:36:22;3.63;;;3.33;;
4553;SDS011;2289;48.316;15.174;2022-08-02T05:38:50;2.37;;;2.17;;
4553;SDS011;2289;48.316;15.174;2022-08-02T05:41:30;2.67;;;2.47;;
4553;SDS011;2289;48.316;15.174;2022-08-02T05:43:59;3.70;;;2.63;;
4553;SDS011;2289;48.316;15.174;2022-08-02T05:46:28;3.10;;;2.80;;
4553;SDS011;2289;48.316;15.174;2022-08-02T05:48:57;4.73;;;2.20;;
4553;SDS011;2289;48.316;15.174;2022-08-02T05:51:27;2.70;;;2.50;;
4553;SDS011;2289;48.316;15.174;2022-08-02T05:54:00;3.77;;;2.70;;
4553;SDS011;2289;48.316;15.174;2022-08-02T05:56:32;3.47;;;2.13;;
4553;SDS011;2289;48.316;15.174;2022-08-02T05:59:04;2.80;;;2.60;;
4553;SDS011;2289;48.316;15.174;2022-08-02T06:01:38;2.00;;;1.87;;
4553;SDS011;2289;48.316;15.174;2022-08-02T06:04:08;1.93;;;1.80;;
4553;SDS011;2289;48.316;15.174;2022-08-02T06:06:38;2.30;;;2.03;;
4553;SDS011;2289;48.316;15.174;2022-08-02T06:09:15;3.20;;;2.70;;
4553;SDS011;2289;48.316;15.174;2022-08-02T06:11:56;3.40;;;2.43;;
4553;SDS011;2289;48.316;15.174;2022-08-02T06:14:29;2.17;;;2.07;;
4553;SDS011;2289;48.316;15.174;2022-08-02T06:17:01;2.60;;;2.33;;
4553;SDS011;2289;48.316;15.174;2022-08-02T06:19:31;2.50;;;2.30;;
4553;SDS011;2289;48.316;15.174;2022-08-02T06:22:18;7.43;;;2.63;;
4553;SDS011;2289;48.316;15.174;2022-08-02T06:25:01;6.13;;;3.30;;
4553;SDS011;2289;48.316;15.174;2022-08-02T06:27:31;3.10;;;2.10;;
4553;SDS011;2289;48.316;15.174;2022-08-02T06:30:00;2.73;;;2.53;;
4553;SDS011;2289;48.316;15.174;2022-08-02T06:32:30;2.37;;;2.17;;
4553;SDS011;2289;48.316;15.174;2022-08-02T06:34:58;2.50;;;2.30;;
4553;SDS011;2289;48.316;15.174;2022-08-02T06:37:30;2.00;;;1.90;;
4553;SDS011;2289;48.316;15.174;2022-08-02T06:40:06;2.53;;;2.33;;
4553;SDS011;2289;48.316;15.174;2022-08-02T06:42:42;2.10;;;1.97;;
4553;SDS011;2289;48.316;15.174;2022-08-02T06:45:12;2.10;;;2.00;;
4553;SDS011;2289;48.316;15.174;2022-08-02T06:47:42;1.93;;;1.83;;
4553;SDS011;2289;48.316;15.174;2022-08-02T06:50:10;2.20;;;2.00;;
4553;SDS011;2289;48.316;15.174;2022-08-02T06:52:39;1.93;;;1.73;;
4553;SDS011;2289;48.316;15.174;2022-08-02T06:55:08;2.43;;;2.20;;
4553;SDS011;2289;48.316;15.174;2022-08-02T06:57:36;1.70;;;1.60;;
4553;SDS011;2289;48.316;15.174;2022-08-02T07:00:05;2.70;;;2.50;;
4553;SDS011;2289;48.316;15.174;2022-08-02T07:02:35;2.27;;;2.07;;
4553;SDS011;2289;48.316;15.174;2022-08-02T07:05:08;1.60;;;1.50;;
4553;SDS011;2289;48.316;15.174;2022-08-02T07:07:36;2.43;;;2.23;;
4553;SDS011;2289;48.316;15.174;2022-08-02T07:10:05;2.33;;;2.17;;
4553;SDS011;2289;48.316;15.174;2022-08-02T07:12:34;2.03;;;1.77;;
4553;SDS011;2289;48.316;15.174;2022-08-02T07:15:03;3.90;;;2.70;;
4553;SDS011;2289;48.316;15.174;2022-08-02T07:17:33;1.93;;;1.83;;
4553;SDS011;2289;48.316;15.174;2022-08-02T07:20:03;1.80;;;1.70;;
4553;SDS011;2289;48.316;15.174;2022-08-02T07:22:34;2.30;;;2.10;;
4553;SDS011;2289;48.316;15.174;2022-08-02T07:25:02;2.00;;;1.80;;
4553;SDS011;2289;48.316;15.174;2022-08-02T07:27:32;2.37;;;1.80;;
4553;SDS011;2289;48.316;15.174;2022-08-02T07:30:00;1.90;;;1.80;;
4553;SDS011;2289;48.316;15.174;2022-08-02T07:32:29;2.80;;;2.00;;
4553;SDS011;2289;48.316;15.174;2022-08-02T07:34:59;1.90;;;1.80;;
4553;SDS011;2289;48.316;15.174;2022-08-02T07:37:34;2.87;;;1.70;;
4553;SDS011;2289;48.316;15.174;2022-08-02T07:40:24;2.00;;;1.80;;
4553;SDS011;2289;48.316;15.174;2022-08-02T07:42:53;1.80;;;1.70;;
4553;SDS011;2289;48.316;15.174;2022-08-02T07:45:30;1.93;;;1.73;;
4553;SDS011;2289;48.316;15.174;2022-08-02T07:48:01;4.80;;;1.60;;
4553;SDS011;2289;48.316;15.174;2022-08-02T07:50:30;2.57;;;2.17;;
4553;SDS011;2289;48.316;15.174;2022-08-02T07:53:01;3.60;;;1.80;;
4553;SDS011;2289;48.316;15.174;2022-08-02T07:55:29;5.80;;;1.63;;
4553;SDS011;2289;48.316;15.174;2022-08-02T07:58:06;1.73;;;1.63;;
4553;SDS011;2289;48.316;15.174;2022-08-02T08:00:38;1.50;;;1.40;;
4553;SDS011;2289;48.316;15.174;2022-08-02T08:03:06;2.80;;;1.80;;
4553;SDS011;2289;48.316;15.174;2022-08-02T08:05:34;1.60;;;1.50;;
4553;SDS011;2289;48.316;15.174;2022-08-02T08:08:04;2.23;;;2.03;;
4553;SDS011;2289;48.316;15.174;2022-08-02T08:10:33;2.40;;;1.40;;
4553;SDS011;2289;48.316;15.174;2022-08-02T08:13:01;1.50;;;1.40;;
4553;SDS011;2289;48.316;15.174;2022-08-02T08:15:30;1.53;;;1.43;;
4553;SDS011;2289;48.316;15.174;2022-08-02T08:17:58;1.70;;;1.60;;
4553;SDS011;2289;48.316;15.174;2022-08-02T08:20:26;2.13;;;1.70;;
4553;SDS011;2289;48.316;15.174;2022-08-02T08:22:54;1.83;;;1.73;;
4553;SDS011;2289;48.316;15.174;2022-08-02T08:25:24;1.50;;;1.40;;
4553;SDS011;2289;48.316;15.174;2022-08-02T08:27:55;2.10;;;1.90;;
4553;SDS011;2289;48.316;15.174;2022-08-02T08:30:24;1.77;;;1.67;;
4553;SDS011;2289;48.316;15.174;2022-08-02T08:32:52;2.60;;;1.50;;
4553;SDS011;2289;48.316;15.174;2022-08-02T08:35:20;1.60;;;1.50;;
4553;SDS011;2289;48.316;15.174;2022-08-02T08:37:49;1.63;;;1.40;;
4553;SDS011;2289;48.316;15.174;2022-08-02T08:40:18;1.80;;;1.65;;
4553;SDS011;2289;48.316;15.174;2022-08-02T08:42:47;1.77;;;1.67;;
4553;SDS011;2289;48.316;15.174;2022-08-02T08:45:15;1.67;;;1.57;;
4553;SDS011;2289;48.316;15.174;2022-08-02T08:47:45;2.40;;;1.50;;
4553;SDS011;2289;48.316;15.174;2022-08-02T08:50:19;2.13;;;1.93;;
4553;SDS011;2289;48.316;15.174;2022-08-02T08:52:52;1.70;;;1.60;;
4553;SDS011;2289;48.316;15.174;2022-08-02T08:55:23;1.63;;;1.53;;
4553;SDS011;2289;48.316;15.174;2022-08-02T08:57:54;1.60;;;1.50;;
4553;SDS011;2289;48.316;15.174;2022-08-02T09:00:25;1.40;;;1.30;;
4553;SDS011;2289;48.316;15.174;2022-08-02T09:02:55;1.40;;;1.30;;
4553;SDS011;2289;48.316;15.174;2022-08-02T09:05:24;1.73;;;1.63;;
4553;SDS011;2289;48.316;15.174;2022-08-02T09:07:52;1.57;;;1.47;;
4553;SDS011;2289;48.316;15.174;2022-08-02T09:10:30;1.20;;;1.10;;
4553;SDS011;2289;48.316;15.174;2022-08-02T09:13:11;1.67;;;1.57;;
4553;SDS011;2289;48.316;15.174;2022-08-02T09:16:03;1.60;;;1.50;;
4553;SDS011;2289;48.316;15.174;2022-08-02T09:18:40;1.70;;;1.57;;
4553;SDS011;2289;48.316;15.174;2022-08-02T09:21:13;1.27;;;1.17;;
4553;SDS011;2289;48.316;15.174;2022-08-02T09:23:44;2.80;;;1.60;;
4553;SDS011;2289;48.316;15.174;2022-08-02T09:26:14;1.70;;;1.60;;
4553;SDS011;2289;48.316;15.174;2022-08-02T09:28:45;1.30;;;1.20;;
4553;SDS011;2289;48.316;15.174;2022-08-02T09:31:16;1.40;;;1.30;;
4553;SDS011;2289;48.316;15.174;2022-08-02T09:33:49;1.90;;;1.80;;
4553;SDS011;2289;48.316;15.174;2022-08-02T09:36:18;2.03;;;1.27;;
4553;SDS011;2289;48.316;15.174;2022-08-02T09:38:54;1.40;;;1.30;;
4553;SDS011;2289;48.316;15.174;2022-08-02T09:41:24;1.70;;;1.60;;
4553;SDS011;2289;48.316;15.174;2022-08-02T09:43:55;1.50;;;1.40;;
4553;SDS011;2289;48.316;15.174;2022-08-02T09:46:33;1.70;;;1.60;;
4553;SDS011;2289;48.316;15.174;2022-08-02T09:49:05;3.30;;;2.20;;
4553;SDS011;2289;48.316;15.174;2022-08-02T09:51:36;1.73;;;1.63;;
4553;SDS011;2289;48.316;15.174;2022-08-02T09:54:07;1.03;;;1.00;;
4553;SDS011;2289;48.316;15.174;2022-08-02T09:56:41;1.60;;;1.50;;
4553;SDS011;2289;48.316;15.174;2022-08-02T09:59:14;2.70;;;1.90;;
4553;SDS011;2289;48.316;15.174;2022-08-02T10:01:44;2.50;;;1.40;;
4553;SDS011;2289;48.316;15.174;2022-08-02T10:04:25;1.97;;;1.87;;
4553;SDS011;2289;48.316;15.174;2022-08-02T10:06:56;1.47;;;1.37;;
4553;SDS011;2289;48.316;15.174;2022-08-02T10:09:25;1.50;;;1.40;;
4553;SDS011;2289;48.316;15.174;2022-08-02T10:11:54;1.90;;;1.80;;
4553;SDS011;2289;48.316;15.174;2022-08-02T10:14:25;1.53;;;1.43;;
4553;SDS011;2289;48.316;15.174;2022-08-02T10:16:53;1.80;;;1.70;;
4553;SDS011;2289;48.316;15.174;2022-08-02T10:19:24;1.40;;;1.30;;
4553;SDS011;2289;48.316;15.174;2022-08-02T10:22:12;1.50;;;1.40;;
4553;SDS011;2289;48.316;15.174;2022-08-02T10:24:45;1.57;;;1.47;;
4553;SDS011;2289;48.316;15.174;2022-08-02T10:27:15;1.73;;;1.60;;
4553;SDS011;2289;48.316;15.174;2022-08-02T10:29:47;1.73;;;1.63;;
4553;SDS011;2289;48.316;15.174;2022-08-02T10:32:23;1.70;;;1.60;;
4553;SDS011;2289;48.316;15.174;2022-08-02T10:34:57;1.40;;;1.30;;
4553;SDS011;2289;48.316;15.174;2022-08-02T10:37:46;1.40;;;1.30;;
4553;SDS011;2289;48.316;15.174;2022-08-02T10:40:18;1.43;;;1.33;;
4553;SDS011;2289;48.316;15.174;2022-08-02T10:42:53;1.90;;;1.70;;
4553;SDS011;2289;48.316;15.174;2022-08-02T10:45:27;1.97;;;1.57;;
4553;SDS011;2289;48.316;15.174;2022-08-02T10:48:00;1.63;;;1.53;;
4553;SDS011;2289;48.316;15.174;2022-08-02T10:53:22;2.03;;;1.67;;
4553;SDS011;2289;48.316;15.174;2022-08-02T10:55:52;2.50;;;1.70;;
4553;SDS011;2289;48.316;15.174;2022-08-02T10:58:21;3.60;;;1.80;;
4553;SDS011;2289;48.316;15.174;2022-08-02T11:00:56;2.30;;;2.10;;
4553;SDS011;2289;48.316;15.174;2022-08-02T11:03:38;1.83;;;1.67;;
4553;SDS011;2289;48.316;15.174;2022-08-02T11:06:08;3.13;;;1.90;;
4553;SDS011;2289;48.316;15.174;2022-08-02T11:11:59;3.67;;;2.23;;
4553;SDS011;2289;48.316;15.174;2022-08-02T11:14:28;4.30;;;2.37;;
4553;SDS011;2289;48.316;15.174;2022-08-02T11:17:07;2.53;;;2.40;;
4553;SDS011;2289;48.316;15.174;2022-08-02T11:22:43;2.20;;;2.00;;
4553;SDS011;2289;48.316;15.174;2022-08-02T11:25:33;1.97;;;1.87;;
4553;SDS011;2289;48.316;15.174;2022-08-02T11:28:22;5.87;;;2.70;;
4553;SDS011;2289;48.316;15.174;2022-08-02T11:30:58;3.63;;;2.83;;
4553;SDS011;2289;48.316;15.174;2022-08-02T11:33:33;4.20;;;2.53;;
4553;SDS011;2289;48.316;15.174;2022-08-02T11:36:03;4.87;;;3.40;;
4553;SDS011;2289;48.316;15.174;2022-08-02T11:38:32;7.40;;;4.10;;
4553;SDS011;2289;48.316;15.174;2022-08-02T11:41:00;6.77;;;2.73;;
4553;SDS011;2289;48.316;15.174;2022-08-02T11:43:35;5.10;;;2.87;;
4553;SDS011;2289;48.316;15.174;2022-08-02T11:46:11;6.10;;;3.60;;
4553;SDS011;2289;48.316;15.174;2022-08-02T11:48:41;7.03;;;3.33;;
4553;SDS011;2289;48.316;15.174;2022-08-02T11:51:11;11.47;;;4.00;;
4553;SDS011;2289;48.316;15.174;2022-08-02T11:53:40;9.70;;;3.90;;
4553;SDS011;2289;48.316;15.174;2022-08-02T11:56:09;11.47;;;4.17;;
4553;SDS011;2289;48.316;15.174;2022-08-02T11:58:38;7.97;;;2.80;;
4553;SDS011;2289;48.316;15.174;2022-08-02T12:01:07;5.70;;;3.40;;
4553;SDS011;2289;48.316;15.174;2022-08-02T12:03:35;6.40;;;3.20;;
4553;SDS011;2289;48.316;15.174;2022-08-02T12:06:06;7.13;;;2.80;;
4553;SDS011;2289;48.316;15.174;2022-08-02T12:08:42;13.23;;;3.50;;
4553;SDS011;2289;48.316;15.174;2022-08-02T12:11:20;9.53;;;3.77;;
4553;SDS011;2289;48.316;15.174;2022-08-02T12:13:48;14.00;;;4.50;;
4553;SDS011;2289;48.316;15.174;2022-08-02T12:16:23;2.67;;;2.40;;
4553;SDS011;2289;48.316;15.174;2022-08-02T12:19:09;5.30;;;3.33;;
4553;SDS011;2289;48.316;15.174;2022-08-02T12:22:04;3.10;;;2.80;;
4553;SDS011;2289;48.316;15.174;2022-08-02T12:24:33;4.50;;;2.97;;
4553;SDS011;2289;48.316;15.174;2022-08-02T12:27:02;4.13;;;3.10;;
4553;SDS011;2289;48.316;15.174;2022-08-02T12:29:31;3.07;;;2.77;;
4553;SDS011;2289;48.316;15.174;2022-08-02T12:32:22;5.17;;;3.13;;
4553;SDS011;2289;48.316;15.174;2022-08-02T12:34:59;3.17;;;2.33;;
4553;SDS011;2289;48.316;15.174;2022-08-02T12:37:33;5.77;;;2.73;;
4553;SDS011;2289;48.316;15.174;2022-08-02T12:40:18;4.90;;;2.40;;
4553;SDS011;2289;48.316;15.174;2022-08-02T12:42:51;5.00;;;2.73;;
4553;SDS011;2289;48.316;15.174;2022-08-02T12:45:21;4.03;;;3.00;;
4553;SDS011;2289;48.316;15.174;2022-08-02T12:47:50;2.70;;;2.50;;
4553;SDS011;2289;48.316;15.174;2022-08-02T12:50:21;4.37;;;3.03;;
4553;SDS011;2289;48.316;15.174;2022-08-02T12:53:03;5.33;;;2.83;;
4553;SDS011;2289;48.316;15.174;2022-08-02T12:55:45;11.30;;;4.23;;
4553;SDS011;2289;48.316;15.174;2022-08-02T12:58:29;3.30;;;3.00;;
4553;SDS011;2289;48.316;15.174;2022-08-02T13:00:58;3.80;;;2.40;;
4553;SDS011;2289;48.316;15.174;2022-08-02T13:03:27;2.60;;;2.40;;
4553;SDS011;2289;48.316;15.174;2022-08-02T13:06:15;3.00;;;2.50;;
4553;SDS011;2289;48.316;15.174;2022-08-02T13:09:12;2.77;;;2.13;;
4553;SDS011;2289;48.316;15.174;2022-08-02T13:11:41;5.27;;;2.30;;
4553;SDS011;2289;48.316;15.174;2022-08-02T13:14:10;2.97;;;2.70;;
4553;SDS011;2289;48.316;15.174;2022-08-02T13:16:40;3.20;;;2.90;;
4553;SDS011;2289;48.316;15.174;2022-08-02T13:19:10;3.10;;;2.30;;
4553;SDS011;2289;48.316;15.174;2022-08-02T13:21:41;2.40;;;2.20;;
4553;SDS011;2289;48.316;15.174;2022-08-02T13:24:29;8.03;;;2.80;;
4553;SDS011;2289;48.316;15.174;2022-08-02T13:27:19;7.30;;;2.60;;
4553;SDS011;2289;48.316;15.174;2022-08-02T13:29:49;3.30;;;3.10;;
4553;SDS011;2289;48.316;15.174;2022-08-02T13:32:18;6.00;;;2.47;;
4553;SDS011;2289;48.316;15.174;2022-08-02T13:34:47;2.80;;;2.60;;
4553;SDS011;2289;48.316;15.174;2022-08-02T13:37:16;3.63;;;2.57;;
4553;SDS011;2289;48.316;15.174;2022-08-02T13:39:46;2.80;;;2.40;;
4553;SDS011;2289;48.316;15.174;2022-08-02T13:42:34;2.87;;;2.47;;
4553;SDS011;2289;48.316;15.174;2022-08-02T13:45:03;2.50;;;2.30;;
4553;SDS011;2289;48.316;15.174;2022-08-02T13:47:38;2.93;;;2.73;;
4553;SDS011;2289;48.316;15.174;2022-08-02T13:50:27;2.73;;;2.53;;
4553;SDS011;2289;48.316;15.174;2022-08-02T13:52:55;3.10;;;2.80;;
4553;SDS011;2289;48.316;15.174;2022-08-02T13:55:25;2.73;;;2.50;;
4553;SDS011;2289;48.316;15.174;2022-08-02T13:57:53;3.83;;;2.97;;
4553;SDS011;2289;48.316;15.174;2022-08-02T14:00:21;2.50;;;2.20;;
4553;SDS011;2289;48.316;15.174;2022-08-02T14:03:02;3.00;;;2.80;;
4553;SDS011;2289;48.316;15.174;2022-08-02T14:05:35;3.30;;;2.87;;
4553;SDS011;2289;48.316;15.174;2022-08-02T14:08:14;2.90;;;2.70;;
4553;SDS011;2289;48.316;15.174;2022-08-02T14:10:46;2.67;;;2.47;;
4553;SDS011;2289;48.316;15.174;2022-08-02T14:13:15;3.17;;;2.87;;
4553;SDS011;2289;48.316;15.174;2022-08-02T14:15:45;4.67;;;2.90;;
4553;SDS011;2289;48.316;15.174;2022-08-02T14:18:13;3.70;;;3.20;;
4553;SDS011;2289;48.316;15.174;2022-08-02T14:20:42;3.53;;;2.30;;
4553;SDS011;2289;48.316;15.174;2022-08-02T14:23:10;4.67;;;2.90;;
4553;SDS011;2289;48.316;15.174;2022-08-02T14:25:39;3.00;;;2.80;;
4553;SDS011;2289;48.316;15.174;2022-08-02T14:28:08;2.93;;;2.73;;
4553;SDS011;2289;48.316;15.174;2022-08-02T14:30:36;2.97;;;2.77;;
4553;SDS011;2289;48.316;15.174;2022-08-02T14:33:05;3.07;;;2.87;;
4553;SDS011;2289;48.316;15.174;2022-08-02T14:35:33;4.13;;;3.30;;
4553;SDS011;2289;48.316;15.174;2022-08-02T14:38:02;3.27;;;2.97;;
4553;SDS011;2289;48.316;15.174;2022-08-02T14:40:30;4.57;;;3.17;;
4553;SDS011;2289;48.316;15.174;2022-08-02T14:42:58;5.03;;;3.40;;
4553;SDS011;2289;48.316;15.174;2022-08-02T14:45:28;4.00;;;3.63;;
4553;SDS011;2289;48.316;15.174;2022-08-02T14:48:07;4.47;;;3.43;;
4553;SDS011;2289;48.316;15.174;2022-08-02T14:50:37;3.00;;;2.80;;
4553;SDS011;2289;48.316;15.174;2022-08-02T14:53:05;4.23;;;3.63;;
4553;SDS011;2289;48.316;15.174;2022-08-02T14:55:39;4.30;;;3.80;;
4553;SDS011;2289;48.316;15.174;2022-08-02T14:58:08;4.20;;;3.77;;
4553;SDS011;2289;48.316;15.174;2022-08-02T15:00:38;3.23;;;2.93;;
4553;SDS011;2289;48.316;15.174;2022-08-02T15:03:09;3.57;;;3.27;;
4553;SDS011;2289;48.316;15.174;2022-08-02T15:05:42;3.37;;;3.07;;
4553;SDS011;2289;48.316;15.174;2022-08-02T15:08:10;4.30;;;3.90;;
4553;SDS011;2289;48.316;15.174;2022-08-02T15:10:42;3.63;;;3.20;;
4553;SDS011;2289;48.316;15.174;2022-08-02T15:13:11;3.60;;;3.27;;
4553;SDS011;2289;48.316;15.174;2022-08-02T15:15:41;3.30;;;3.10;;
4553;SDS011;2289;48.316;15.174;2022-08-02T15:18:10;3.03;;;2.83;;
4553;SDS011;2289;48.316;15.174;2022-08-02T15:20:38;4.20;;;3.33;;
4553;SDS011;2289;48.316;15.174;2022-08-02T15:23:23;3.60;;;3.20;;
4553;SDS011;2289;48.316;15.174;2022-08-02T15:26:03;3.93;;;3.63;;
4553;SDS011;2289;48.316;15.174;2022-08-02T15:28:31;2.90;;;2.70;;
4553;SDS011;2289;48.316;15.174;2022-08-02T15:31:01;3.17;;;2.63;;
4553;SDS011;2289;48.316;15.174;2022-08-02T15:33:29;4.20;;;2.97;;
4553;SDS011;2289;48.316;15.174;2022-08-02T15:35:57;2.80;;;2.50;;
4553;SDS011;2289;48.316;15.174;2022-08-02T15:38:25;2.90;;;2.70;;